Time;durP1;ratioP1;P1;durP2;ratioP2;P2;SDS_P1;SDS_P2;PMS_P1;PMS_P2;Temp;Humidity;BMP_temperature;BMP_pressure;BME280_temperature;BME280_humidity;BME280_pressure;Samples;Min_cycle;Max_cycle;Signal;HPM_P1;HPM_P2
2023/03/04 00:00:50;;;;;;;21.70;7.23;;;;;-0.20;96575.00;;;;8403017;28;20196;-70
2023/03/04 00:04:56;;;;;;;18.47;6.87;;;;;-0.20;96572.00;;;;8401821;28;20196;-69
2023/03/04 00:09:05;;;;;;;15.87;6.30;;;;;-0.20;96571.00;;;;8402504;28;20196;-69
2023/03/04 00:13:08;;;;;;;15.03;5.87;;;;;-0.30;96572.00;;;;8402058;28;20226;-69
2023/03/04 00:17:19;;;;;;;17.00;6.30;;;;;-0.30;96570.00;;;;8401062;28;20345;-69
2023/03/04 00:21:22;;;;;;;16.80;6.00;;;;;-0.30;96575.00;;;;8400473;28;20230;-69
2023/03/04 00:25:29;;;;;;;14.57;6.30;;;;;-0.30;96572.00;;;;8399617;28;20287;-69
2023/03/04 00:29:32;;;;;;;16.73;6.23;;;;;-0.30;96568.00;;;;8401179;28;20199;-69
2023/03/04 00:33:36;;;;;;;15.17;6.17;;;;;-0.30;96580.00;;;;8401834;28;20192;-70
2023/03/04 00:37:45;;;;;;;16.97;6.90;;;;;-0.20;96573.00;;;;8402058;28;20706;-69
2023/03/04 00:41:53;;;;;;;13.87;6.17;;;;;-0.20;96571.00;;;;8400941;28;20464;-69
2023/03/04 00:45:59;;;;;;;21.23;7.30;;;;;-0.20;96577.00;;;;8383692;28;20238;-69
2023/03/04 00:50:03;;;;;;;18.73;6.27;;;;;-0.30;96560.00;;;;8399840;28;20609;-69
2023/03/04 00:54:08;;;;;;;18.30;7.17;;;;;-0.40;96560.00;;;;8383527;28;20576;-69
2023/03/04 00:58:13;;;;;;;21.77;7.37;;;;;-0.50;96555.00;;;;8395776;28;20219;-68
2023/03/04 01:02:18;;;;;;;16.83;7.70;;;;;-0.60;96554.00;;;;8399850;28;20230;-68
2023/03/04 01:06:21;;;;;;;17.77;7.40;;;;;-0.60;96551.00;;;;8396848;28;20192;-68
2023/03/04 01:10:25;;;;;;;20.63;7.40;;;;;-0.60;96549.00;;;;8382167;28;20231;-68
2023/03/04 01:14:32;;;;;;;16.57;7.50;;;;;-0.60;96543.00;;;;8400086;28;20634;-68
2023/03/04 01:18:37;;;;;;;16.47;7.10;;;;;-0.70;96547.00;;;;8400189;28;20292;-68
2023/03/04 01:22:40;;;;;;;14.83;6.57;;;;;-0.70;96533.00;;;;8399278;28;20184;-67
2023/03/04 01:26:44;;;;;;;18.43;7.47;;;;;-0.80;96532.00;;;;8399812;28;20200;-68
2023/03/04 01:30:49;;;;;;;21.90;7.10;;;;;-0.80;96538.00;;;;8398725;28;20188;-68
2023/03/04 01:34:53;;;;;;;17.20;7.17;;;;;-0.90;96531.00;;;;8398939;28;20250;-68
2023/03/04 01:38:59;;;;;;;20.43;6.80;;;;;-1.00;96527.00;;;;8397467;28;20212;-68
2023/03/04 01:43:02;;;;;;;18.37;7.70;;;;;-1.00;96528.00;;;;8397778;28;20196;-69
2023/03/04 01:47:13;;;;;;;16.97;7.53;;;;;-1.10;96525.00;;;;8397510;28;20199;-68
2023/03/04 01:51:18;;;;;;;19.10;7.00;;;;;-1.10;96515.00;;;;8398297;28;20222;-69
2023/03/04 01:55:23;;;;;;;19.80;7.77;;;;;-1.20;96516.00;;;;8398658;28;20278;-69
2023/03/04 01:59:31;;;;;;;21.30;7.70;;;;;-1.30;96510.00;;;;8398989;28;20224;-69
2023/03/04 02:03:37;;;;;;;19.23;7.70;;;;;-1.30;96504.00;;;;8398213;28;20228;-69
2023/03/04 02:07:42;;;;;;;18.83;7.77;;;;;-1.20;96510.00;;;;8398861;28;20184;-69
2023/03/04 02:11:49;;;;;;;17.30;8.00;;;;;-1.30;96511.00;;;;8397506;28;20204;-69
2023/03/04 02:15:54;;;;;;;16.90;6.73;;;;;-1.30;96510.00;;;;8396526;28;20234;-69
2023/03/04 02:20:07;;;;;;;16.03;6.90;;;;;-1.40;96507.00;;;;8380817;28;20263;-69
2023/03/04 02:24:17;;;;;;;18.00;7.20;;;;;-1.50;96497.00;;;;8397333;28;20662;-69
2023/03/04 02:28:22;;;;;;;19.93;7.63;;;;;-1.40;96508.00;;;;8398011;28;20192;-68
2023/03/04 02:32:26;;;;;;;16.83;8.27;;;;;-1.40;96500.00;;;;8397452;28;20490;-68
2023/03/04 02:36:32;;;;;;;18.73;7.63;;;;;-1.30;96495.00;;;;8397864;28;20529;-68
2023/03/04 02:40:35;;;;;;;16.47;8.03;;;;;-1.30;96496.00;;;;8395626;28;20706;-68
2023/03/04 02:44:45;;;;;;;17.97;8.20;;;;;-1.30;96499.00;;;;8397481;28;20210;-68
2023/03/04 02:48:52;;;;;;;19.97;8.13;;;;;-1.30;96501.00;;;;8397072;28;20188;-68
2023/03/04 02:52:59;;;;;;;19.30;7.77;;;;;-1.30;96498.00;;;;8397925;28;20188;-67
2023/03/04 02:57:05;;;;;;;16.73;7.77;;;;;-1.40;96490.00;;;;8397256;28;20258;-67
2023/03/04 03:01:09;;;;;;;14.87;7.03;;;;;-1.40;96498.00;;;;8424037;22;20299;-69
2023/03/04 03:05:13;;;;;;;21.03;7.23;;;;;-1.40;96486.00;;;;8423485;28;20256;-72
2023/03/04 03:09:17;;;;;;;19.93;8.10;;;;;-1.40;96492.00;;;;8428910;28;20207;-69
2023/03/04 03:13:22;;;;;;;20.10;8.00;;;;;-1.30;96500.00;;;;8415840;28;20195;-71
2023/03/04 03:17:31;;;;;;;18.57;8.17;;;;;-1.40;96490.00;;;;8435624;28;20199;-70
2023/03/04 03:21:36;;;;;;;22.53;8.50;;;;;-1.40;96496.00;;;;8425831;28;20312;-67
2023/03/04 03:25:40;;;;;;;23.60;8.87;;;;;-1.40;96477.00;;;;8434169;28;20203;-70
2023/03/04 03:29:43;;;;;;;20.03;8.40;;;;;-1.40;96490.00;;;;8427623;28;20684;-68
2023/03/04 03:33:49;;;;;;;22.63;8.07;;;;;-1.50;96492.00;;;;8432661;28;20259;-70
2023/03/04 03:37:58;;;;;;;17.07;7.60;;;;;-1.50;96485.00;;;;8436167;28;20203;-69
2023/03/04 03:42:01;;;;;;;21.90;8.07;;;;;-1.60;96477.00;;;;8430163;28;20206;-67
2023/03/04 03:46:05;;;;;;;26.90;9.83;;;;;-1.60;96477.00;;;;8433513;28;20228;-69
2023/03/04 03:50:10;;;;;;;18.70;8.20;;;;;-1.60;96472.00;;;;8436242;28;20345;-66
2023/03/04 03:54:15;;;;;;;20.63;8.67;;;;;-1.70;96478.00;;;;8440111;28;20716;-66
2023/03/04 03:58:20;;;;;;;21.60;9.10;;;;;-1.80;96476.00;;;;8434087;28;20540;-68
2023/03/04 04:02:26;;;;;;;22.00;9.10;;;;;-1.90;96475.00;;;;8433983;28;20230;-67
2023/03/04 04:06:34;;;;;;;27.10;9.50;;;;;-1.90;96472.00;;;;8412820;28;20187;-68
2023/03/04 04:10:45;;;;;;;22.80;9.13;;;;;-2.00;96485.00;;;;8412137;28;20714;-68
2023/03/04 04:14:49;;;;;;;24.53;9.87;;;;;-2.10;96474.00;;;;8411611;28;20644;-67
2023/03/04 04:18:52;;;;;;;32.87;10.07;;;;;-2.10;96480.00;;;;8418451;28;20216;-67
2023/03/04 04:23:00;;;;;;;27.50;9.47;;;;;-2.10;96467.00;;;;8418193;28;20254;-66
2023/03/04 04:27:06;;;;;;;23.17;8.87;;;;;-2.10;96467.00;;;;8416455;28;20211;-66
2023/03/04 04:31:11;;;;;;;26.67;9.93;;;;;-2.20;96474.00;;;;8386686;28;20246;-68
2023/03/04 04:35:15;;;;;;;25.97;9.50;;;;;-2.20;96478.00;;;;8386259;28;20634;-66
2023/03/04 04:39:19;;;;;;;31.63;10.53;;;;;-2.20;96478.00;;;;8403965;28;20226;-68
2023/03/04 04:43:23;;;;;;;28.63;9.80;;;;;-2.20;96480.00;;;;8416355;28;20568;-67
2023/03/04 04:47:28;;;;;;;26.33;9.80;;;;;-2.20;96480.00;;;;8411677;28;20732;-67
2023/03/04 04:51:31;;;;;;;23.70;9.97;;;;;-2.20;96486.00;;;;8406545;28;20199;-67
2023/03/04 04:55:36;;;;;;;25.97;9.80;;;;;-2.20;96487.00;;;;8413628;28;20248;-65
2023/03/04 04:59:42;;;;;;;27.47;10.00;;;;;-2.20;96485.00;;;;8401885;28;20235;-64
2023/03/04 05:03:52;;;;;;;28.70;10.80;;;;;-2.20;96475.00;;;;8396933;28;20227;-68
2023/03/04 05:07:55;;;;;;;33.03;10.23;;;;;-2.20;96491.00;;;;8424163;28;20203;-64
2023/03/04 05:12:02;;;;;;;25.23;9.87;;;;;-2.20;96484.00;;;;8409480;28;20202;-66
2023/03/04 05:16:09;;;;;;;29.97;11.47;;;;;-2.20;96485.00;;;;8401482;28;20195;-67
2023/03/04 05:20:17;;;;;;;34.73;11.87;;;;;-2.10;96486.00;;;;8399939;28;20220;-65
2023/03/04 05:24:20;;;;;;;31.20;12.03;;;;;-2.00;96490.00;;;;8416781;28;20186;-67
2023/03/04 05:28:24;;;;;;;30.03;11.10;;;;;-1.90;96495.00;;;;8408245;28;20648;-66
2023/03/04 05:32:30;;;;;;;35.87;12.73;;;;;-1.80;96486.00;;;;8399751;28;20244;-65
2023/03/04 05:36:39;;;;;;;36.83;12.60;;;;;-1.70;96488.00;;;;8401435;28;20206;-66
2023/03/04 05:40:45;;;;;;;41.43;14.17;;;;;-1.60;96496.00;;;;8411370;28;20277;-65
2023/03/04 05:44:50;;;;;;;27.83;11.57;;;;;-1.60;96489.00;;;;8406635;28;20198;-66
2023/03/04 05:48:56;;;;;;;33.87;12.17;;;;;-1.60;96495.00;;;;8405641;28;20203;-64
2023/03/04 05:52:59;;;;;;;33.40;12.60;;;;;-1.60;96504.00;;;;8404095;28;20199;-64
2023/03/04 05:57:03;;;;;;;36.20;12.47;;;;;-1.60;96507.00;;;;8404885;28;20285;-66
2023/03/04 06:01:11;;;;;;;34.07;12.63;;;;;-1.60;96508.00;;;;8391536;28;20268;-65
2023/03/04 06:05:15;;;;;;;31.20;12.40;;;;;-1.50;96510.00;;;;8402467;28;20202;-65
2023/03/04 06:09:21;;;;;;;33.13;12.23;;;;;-1.40;96507.00;;;;8410742;28;20195;-65
2023/03/04 06:13:24;;;;;;;37.27;12.70;;;;;-1.40;96521.00;;;;8397747;28;20204;-64
2023/03/04 06:17:29;;;;;;;36.13;13.20;;;;;-1.40;96517.00;;;;8411289;28;20203;-64
2023/03/04 06:21:34;;;;;;;34.70;12.90;;;;;-1.30;96527.00;;;;8410405;28;20250;-64
2023/03/04 06:25:37;;;;;;;37.67;13.47;;;;;-1.30;96537.00;;;;8404794;28;21315;-64
2023/03/04 06:29:40;;;;;;;36.50;12.40;;;;;-1.20;96546.00;;;;8408570;28;20203;-63
2023/03/04 06:33:45;;;;;;;36.20;12.63;;;;;-1.10;96558.00;;;;8390599;28;20210;-65
2023/03/04 06:37:49;;;;;;;40.93;15.13;;;;;-0.80;96560.00;;;;8407834;28;20203;-65
2023/03/04 06:41:52;;;;;;;37.23;15.20;;;;;-0.70;96570.00;;;;8403329;28;20291;-66
2023/03/04 06:45:55;;;;;;;35.77;13.37;;;;;-0.60;96564.00;;;;8412251;28;20218;-65
2023/03/04 06:50:00;;;;;;;37.83;14.63;;;;;-0.40;96573.00;;;;8408416;28;20826;-66
2023/03/04 06:54:06;;;;;;;47.20;17.47;;;;;-0.20;96571.00;;;;8409660;28;20200;-67
2023/03/04 06:58:09;;;;;;;50.57;19.20;;;;;-0.10;96582.00;;;;8414415;28;20276;-63
2023/03/04 07:02:13;;;;;;;35.70;13.77;;;;;-0.20;96583.00;;;;8406557;28;20223;-65
2023/03/04 07:06:20;;;;;;;49.00;18.23;;;;;-0.20;96577.00;;;;8407009;28;20208;-64
2023/03/04 07:10:23;;;;;;;41.33;14.90;;;;;-0.10;96583.00;;;;8406895;28;20196;-66
2023/03/04 07:14:29;;;;;;;35.97;14.67;;;;;-0.10;96598.00;;;;8408296;28;20235;-65
2023/03/04 07:18:32;;;;;;;32.27;13.33;;;;;0.10;96595.00;;;;8408526;28;20564;-64
2023/03/04 07:22:45;;;;;;;33.20;12.97;;;;;0.20;96603.00;;;;8399806;28;20227;-64
2023/03/04 07:26:48;;;;;;;31.27;12.83;;;;;0.20;96616.00;;;;8408260;28;20195;-64
2023/03/04 07:30:55;;;;;;;31.43;11.27;;;;;0.20;96624.00;;;;8415984;28;20787;-67
2023/03/04 07:34:58;;;;;;;27.10;11.50;;;;;0.20;96621.00;;;;8413669;28;20254;-63
2023/03/04 07:39:04;;;;;;;27.87;10.00;;;;;0.30;96622.00;;;;8416206;28;20191;-64
2023/03/04 07:43:08;;;;;;;29.23;11.47;;;;;0.40;96628.00;;;;8413476;28;20284;-65
2023/03/04 07:47:13;;;;;;;24.33;10.53;;;;;0.50;96634.00;;;;8410533;28;20192;-64
2023/03/04 07:51:21;;;;;;;29.70;11.67;;;;;0.70;96634.00;;;;8416227;28;20196;-66
2023/03/04 07:55:26;;;;;;;27.43;10.57;;;;;0.70;96630.00;;;;8414784;28;20224;-64
2023/03/04 07:59:31;;;;;;;27.63;10.87;;;;;0.70;96643.00;;;;8418651;28;20199;-64
2023/03/04 08:03:42;;;;;;;28.47;10.90;;;;;0.70;96658.00;;;;8410283;28;20265;-65
2023/03/04 08:07:45;;;;;;;38.60;14.50;;;;;0.70;96655.00;;;;8422381;28;20197;-65
2023/03/04 08:11:50;;;;;;;31.40;12.37;;;;;0.50;96645.00;;;;8410001;28;20195;-65
2023/03/04 08:15:58;;;;;;;29.53;10.63;;;;;0.60;96647.00;;;;8418249;28;20195;-65
2023/03/04 08:20:03;;;;;;;21.77;9.63;;;;;0.70;96643.00;;;;8413941;28;20234;-65
2023/03/04 08:24:07;;;;;;;26.47;10.47;;;;;0.70;96647.00;;;;8413476;28;20199;-65
2023/03/04 08:28:16;;;;;;;24.50;10.77;;;;;0.90;96643.00;;;;8418013;28;20221;-64
2023/03/04 08:32:22;;;;;;;30.23;10.63;;;;;1.00;96650.00;;;;8409109;28;20262;-65
2023/03/04 08:36:25;;;;;;;23.70;9.57;;;;;1.00;96659.00;;;;8400088;28;20192;-65
2023/03/04 08:40:31;;;;;;;27.60;10.63;;;;;1.10;96658.00;;;;8408427;28;20231;-68
2023/03/04 08:44:36;;;;;;;23.07;9.40;;;;;1.10;96647.00;;;;8411631;28;20200;-68
2023/03/04 08:48:45;;;;;;;24.83;9.70;;;;;1.20;96652.00;;;;8420402;28;20211;-65
2023/03/04 08:52:50;;;;;;;18.43;7.77;;;;;1.30;96653.00;;;;8417353;28;20878;-65
2023/03/04 08:56:53;;;;;;;22.93;8.23;;;;;1.20;96637.00;;;;8400351;28;20596;-64
2023/03/04 09:00:59;;;;;;;26.33;9.50;;;;;1.20;96650.00;;;;8411718;28;20682;-68
2023/03/04 09:05:02;;;;;;;20.73;8.03;;;;;1.20;96647.00;;;;8404409;28;20207;-66
2023/03/04 09:09:07;;;;;;;25.83;9.23;;;;;1.30;96661.00;;;;8416379;28;20193;-66
2023/03/04 09:13:11;;;;;;;21.87;8.97;;;;;1.40;96649.00;;;;8400672;28;20786;-66
2023/03/04 09:17:15;;;;;;;22.93;9.70;;;;;1.50;96646.00;;;;8403601;28;20188;-65
2023/03/04 09:21:20;;;;;;;23.07;9.53;;;;;1.50;96644.00;;;;8406014;28;20232;-67
2023/03/04 09:25:30;;;;;;;23.37;9.43;;;;;1.50;96644.00;;;;8411723;28;20263;-67
2023/03/04 09:29:35;;;;;;;20.03;9.37;;;;;1.50;96645.00;;;;8402171;28;20206;-65
2023/03/04 09:33:42;;;;;;;23.87;8.67;;;;;1.60;96650.00;;;;8411234;28;20209;-66
2023/03/04 09:37:47;;;;;;;22.90;9.87;;;;;1.60;96644.00;;;;8396308;28;20204;-66
2023/03/04 09:41:56;;;;;;;25.23;10.43;;;;;1.50;96659.00;;;;8413607;28;20231;-68
2023/03/04 09:46:05;;;;;;;20.90;8.43;;;;;1.60;96665.00;;;;8418528;28;20200;-66
2023/03/04 09:50:16;;;;;;;27.43;10.40;;;;;1.60;96662.00;;;;8416333;28;20189;-65
2023/03/04 09:54:30;;;;;;;36.60;15.80;;;;;1.80;96653.00;;;;8426104;28;20212;-69
2023/03/04 09:58:45;;;;;;;42.57;24.33;;;;;1.80;96664.00;;;;8419447;28;20208;-67
2023/03/04 10:03:05;;;;;;;21.33;9.37;;;;;1.70;96672.00;;;;8413543;28;20232;-67
2023/03/04 10:07:21;;;;;;;53.03;23.23;;;;;1.60;96670.00;;;;8415761;28;20204;-66
2023/03/04 10:11:29;;;;;;;35.33;14.60;;;;;1.60;96667.00;;;;8417549;28;20210;-68
2023/03/04 10:15:38;;;;;;;24.27;11.47;;;;;1.70;96666.00;;;;8417896;28;20195;-67
2023/03/04 10:19:54;;;;;;;34.37;13.23;;;;;1.60;96665.00;;;;8409645;28;20194;-67
2023/03/04 10:24:00;;;;;;;32.70;13.53;;;;;1.60;96671.00;;;;8407810;28;20242;-69
2023/03/04 10:28:10;;;;;;;37.57;13.77;;;;;1.70;96671.00;;;;8405180;28;20196;-67
2023/03/04 10:32:17;;;;;;;34.53;12.50;;;;;1.80;96666.00;;;;8421438;28;20197;-69
2023/03/04 10:36:37;;;;;;;30.10;12.80;;;;;1.90;96664.00;;;;8409149;28;20204;-68
2023/03/04 10:40:42;;;;;;;33.87;14.33;;;;;1.90;96669.00;;;;8412160;28;20264;-68
2023/03/04 10:44:56;;;;;;;36.10;14.43;;;;;1.90;96671.00;;;;8401073;28;20282;-70
2023/03/04 10:48:59;;;;;;;35.70;13.50;;;;;1.90;96659.00;;;;8412186;28;20249;-66
2023/03/04 10:53:07;;;;;;;42.10;14.50;;;;;2.00;96658.00;;;;8409553;28;20192;-67
2023/03/04 10:57:17;;;;;;;31.10;13.17;;;;;2.00;96642.00;;;;8370793;28;20282;-68
2023/03/04 11:01:24;;;;;;;35.63;14.20;;;;;2.20;96660.00;;;;8410234;28;20229;-68
2023/03/04 11:05:32;;;;;;;30.47;12.80;;;;;2.20;96652.00;;;;8411775;28;20231;-67
2023/03/04 11:09:39;;;;;;;39.53;13.43;;;;;2.30;96649.00;;;;8415569;28;20204;-66
2023/03/04 11:13:53;;;;;;;35.93;13.53;;;;;2.50;96643.00;;;;8419450;28;20565;-69
2023/03/04 11:18:03;;;;;;;35.30;15.47;;;;;2.60;96641.00;;;;8414936;28;20209;-66
2023/03/04 11:22:13;;;;;;;35.57;14.90;;;;;2.60;96630.00;;;;8420821;28;20588;-68
2023/03/04 11:26:19;;;;;;;32.17;14.37;;;;;2.70;96626.00;;;;8414588;28;20606;-69
2023/03/04 11:30:34;;;;;;;37.50;15.53;;;;;2.70;96624.00;;;;8421887;28;20195;-69
2023/03/04 11:34:46;;;;;;;38.03;15.57;;;;;2.70;96625.00;;;;8418169;28;20716;-69
2023/03/04 11:38:52;;;;;;;37.07;14.13;;;;;2.90;96631.00;;;;8421576;28;20200;-69
2023/03/04 11:43:01;;;;;;;37.23;13.57;;;;;3.00;96627.00;;;;8417229;28;20242;-69
2023/03/04 11:47:32;;;;;;;35.60;14.77;;;;;3.00;96616.00;;;;8417263;28;20662;-70
2023/03/04 11:51:46;;;;;;;37.13;15.43;;;;;3.00;96614.00;;;;8401855;28;20602;-69
2023/03/04 11:56:02;;;;;;;29.70;13.57;;;;;3.00;96612.00;;;;8408552;28;20575;-69
2023/03/04 12:00:28;;;;;;;35.10;14.20;;;;;3.00;96604.00;;;;8408783;28;20295;-74
2023/03/04 12:04:48;;;;;;;37.53;16.13;;;;;3.00;96600.00;;;;8411023;28;20225;-75
2023/03/04 12:09:28;;;;;;;35.53;15.03;;;;;3.00;96599.00;;;;8405088;28;20244;-73
2023/03/04 12:14:06;;;;;;;35.60;15.20;;;;;3.00;96588.00;;;;8379301;28;20257;-74
2023/03/04 12:18:28;;;;;;;36.50;15.43;;;;;3.10;96588.00;;;;8403045;28;20729;-69
2023/03/04 12:22:43;;;;;;;34.90;12.53;;;;;3.10;96575.00;;;;8390987;28;20229;-71
2023/03/04 12:26:52;;;;;;;35.33;14.60;;;;;3.10;96572.00;;;;8413880;28;20199;-70
2023/03/04 12:31:14;;;;;;;33.17;14.43;;;;;3.10;96567.00;;;;8409823;28;20209;-70
2023/03/04 12:35:33;;;;;;;35.03;14.67;;;;;3.00;96561.00;;;;8393581;28;20201;-72
2023/03/04 12:39:42;;;;;;;30.63;14.80;;;;;3.10;96560.00;;;;8407410;28;20633;-70
2023/03/04 12:43:54;;;;;;;32.13;13.70;;;;;3.10;96548.00;;;;8399979;28;20968;-71
2023/03/04 12:48:07;;;;;;;39.40;14.87;;;;;3.10;96550.00;;;;8410255;28;20249;-71
2023/03/04 12:52:19;;;;;;;32.97;13.77;;;;;3.20;96554.00;;;;8410475;28;20186;-69
2023/03/04 12:56:30;;;;;;;31.63;14.80;;;;;3.10;96554.00;;;;8403881;28;20201;-69
2023/03/04 13:00:46;;;;;;;31.00;13.63;;;;;3.00;96555.00;;;;8412281;28;20671;-69
2023/03/04 13:04:59;;;;;;;32.40;13.87;;;;;3.00;96542.00;;;;8407892;28;20232;-69
2023/03/04 13:09:10;;;;;;;39.17;14.47;;;;;3.00;96548.00;;;;8408347;28;20786;-70
2023/03/04 13:13:38;;;;;;;30.17;13.00;;;;;3.00;96546.00;;;;8400451;28;20323;-72
2023/03/04 13:17:43;;;;;;;42.90;15.10;;;;;3.10;96548.00;;;;8398681;28;20191;-71
2023/03/04 13:21:48;;;;;;;31.77;13.57;;;;;3.20;96556.00;;;;8402240;28;20274;-70
2023/03/04 13:26:24;;;;;;;40.83;14.77;;;;;3.20;96554.00;;;;8403669;28;20221;-71
2023/03/04 13:31:07;;;;;;;33.07;15.10;;;;;3.20;96543.00;;;;8407105;28;20260;-69
2023/03/04 13:35:43;;;;;;;31.87;13.87;;;;;3.20;96551.00;;;;8412100;28;20195;-69
2023/03/04 13:40:28;;;;;;;32.10;14.47;;;;;3.30;96546.00;;;;8406948;28;20211;-68
2023/03/04 13:44:54;;;;;;;26.50;12.97;;;;;3.40;96536.00;;;;8408266;28;20233;-70
2023/03/04 13:49:18;;;;;;;33.20;13.93;;;;;3.40;96531.00;;;;8390008;28;20287;-70
2023/03/04 13:53:40;;;;;;;29.17;13.30;;;;;3.50;96520.00;;;;8403814;28;20246;-67
2023/03/04 13:57:51;;;;;;;32.30;16.65;;;;;3.50;96528.00;;;;8413753;28;20538;-67
2023/03/04 14:02:15;;;;;;;35.70;14.97;;;;;3.70;96527.00;;;;8409780;28;20281;-68
2023/03/04 14:06:25;;;;;;;29.07;13.43;;;;;3.70;96519.00;;;;8405435;28;20193;-68
2023/03/04 14:10:29;;;;;;;26.77;12.87;;;;;3.70;96524.00;;;;8404957;28;20196;-68
2023/03/04 14:14:40;;;;;;;32.77;14.67;;;;;3.70;96519.00;;;;8413164;28;20210;-69
2023/03/04 14:18:45;;;;;;;39.03;14.37;;;;;3.60;96519.00;;;;8397540;28;20206;-68
2023/03/04 14:22:48;;;;;;;35.83;13.53;;;;;3.70;96504.00;;;;8401431;28;20255;-70
2023/03/04 14:27:04;;;;;;;28.50;13.53;;;;;3.60;96510.00;;;;8412955;28;20712;-68
2023/03/04 14:31:15;;;;;;;25.97;12.10;;;;;3.60;96498.00;;;;8411690;28;20219;-68
2023/03/04 14:35:24;;;;;;;27.77;12.13;;;;;3.60;96500.00;;;;8402556;28;20203;-67
2023/03/04 14:39:31;;;;;;;30.63;13.63;;;;;3.50;96506.00;;;;8400675;28;20201;-67
2023/03/04 14:43:40;;;;;;;28.13;12.90;;;;;3.50;96502.00;;;;8399866;28;20258;-68
2023/03/04 14:47:47;;;;;;;29.83;12.63;;;;;3.40;96494.00;;;;8401658;28;20542;-67
2023/03/04 14:51:54;;;;;;;32.57;14.17;;;;;3.40;96487.00;;;;8412249;28;20207;-68
2023/03/04 14:56:05;;;;;;;32.33;16.03;;;;;3.40;96499.00;;;;8405955;28;20199;-68
2023/03/04 15:00:16;;;;;;;27.07;12.60;;;;;3.40;96499.00;;;;8400908;28;20252;-67
2023/03/04 15:04:25;;;;;;;40.67;19.93;;;;;3.40;96493.00;;;;8405429;28;20236;-66
2023/03/04 15:08:35;;;;;;;27.53;13.70;;;;;3.40;96479.00;;;;8399270;28;20231;-66
2023/03/04 15:12:39;;;;;;;29.50;13.40;;;;;3.30;96495.00;;;;8404149;28;20772;-70
2023/03/04 15:16:59;;;;;;;34.33;13.73;;;;;3.30;96488.00;;;;8405801;28;20260;-68
2023/03/04 15:21:26;;;;;;;33.27;13.57;;;;;3.30;96489.00;;;;8411650;28;20205;-68
2023/03/04 15:25:33;;;;;;;30.20;13.47;;;;;3.30;96480.00;;;;8402883;28;20221;-68
2023/03/04 15:29:41;;;;;;;26.00;13.13;;;;;3.20;96490.00;;;;8393354;28;20208;-67
2023/03/04 15:33:45;;;;;;;27.93;12.13;;;;;3.20;96475.00;;;;8402099;28;20194;-68
2023/03/04 15:37:51;;;;;;;25.03;13.00;;;;;3.20;96478.00;;;;8410552;28;20200;-68
2023/03/04 15:41:55;;;;;;;29.90;12.57;;;;;3.20;96480.00;;;;8399026;28;20204;-67
2023/03/04 15:45:59;;;;;;;24.10;12.50;;;;;3.30;96484.00;;;;8385672;28;20228;-69
2023/03/04 15:50:05;;;;;;;29.93;13.90;;;;;3.30;96479.00;;;;8404893;28;20196;-67
2023/03/04 15:54:17;;;;;;;27.03;13.43;;;;;3.30;96480.00;;;;8419360;28;22023;-68
2023/03/04 15:58:25;;;;;;;26.27;11.63;;;;;3.20;96480.00;;;;8423865;28;20258;-67
2023/03/04 16:02:31;;;;;;;24.07;11.87;;;;;3.20;96475.00;;;;8421225;28;20325;-71
2023/03/04 16:06:34;;;;;;;27.57;11.90;;;;;3.20;96468.00;;;;8414285;28;20212;-69
2023/03/04 16:10:43;;;;;;;27.70;12.67;;;;;3.20;96472.00;;;;8395821;28;20259;-70
2023/03/04 16:14:49;;;;;;;25.10;11.37;;;;;3.20;96479.00;;;;8418199;28;20654;-69
2023/03/04 16:18:53;;;;;;;26.57;12.50;;;;;3.10;96479.00;;;;8414205;28;20196;-67
2023/03/04 16:22:59;;;;;;;27.87;11.73;;;;;3.20;96471.00;;;;8409199;28;20288;-67
2023/03/04 16:27:03;;;;;;;28.90;10.90;;;;;3.20;96472.00;;;;8412344;28;20210;-67
2023/03/04 16:31:12;;;;;;;33.17;12.33;;;;;3.10;96472.00;;;;8388132;28;20553;-68
2023/03/04 16:35:23;;;;;;;26.60;12.33;;;;;3.20;96475.00;;;;8414788;28;20659;-70
2023/03/04 16:39:28;;;;;;;27.97;11.90;;;;;3.20;96480.00;;;;8406072;28;20196;-67
2023/03/04 16:43:31;;;;;;;28.70;12.67;;;;;3.20;96474.00;;;;8403649;28;20218;-68
2023/03/04 16:47:42;;;;;;;35.47;13.73;;;;;3.20;96476.00;;;;8410656;28;20200;-68
2023/03/04 16:51:49;;;;;;;27.50;12.53;;;;;3.20;96464.00;;;;8411488;28;20244;-68
2023/03/04 16:55:57;;;;;;;34.97;14.13;;;;;3.20;96476.00;;;;8396704;28;20203;-69
2023/03/04 17:00:01;;;;;;;30.60;12.90;;;;;3.20;96468.00;;;;8410976;28;20201;-68
2023/03/04 17:04:05;;;;;;;26.23;13.13;;;;;3.10;96479.00;;;;8406998;28;20229;-69
2023/03/04 17:08:08;;;;;;;29.20;12.07;;;;;3.10;96483.00;;;;8407191;28;20662;-72
2023/03/04 17:12:12;;;;;;;24.33;12.53;;;;;3.10;96483.00;;;;8415878;28;20696;-69
2023/03/04 17:16:16;;;;;;;28.40;13.47;;;;;3.10;96492.00;;;;8410773;28;20637;-71
2023/03/04 17:20:21;;;;;;;27.53;13.10;;;;;3.10;96480.00;;;;8412917;28;20211;-71
2023/03/04 17:24:28;;;;;;;37.47;16.13;;;;;3.10;96487.00;;;;8410376;28;20226;-70
2023/03/04 17:28:33;;;;;;;41.73;18.17;;;;;3.10;96488.00;;;;8407682;28;20257;-69
2023/03/04 17:32:38;;;;;;;121.83;45.10;;;;;3.20;96485.00;;;;8409999;28;20192;-70
2023/03/04 17:36:43;;;;;;;55.47;24.27;;;;;3.10;96477.00;;;;8410536;28;20275;-69
2023/03/04 17:40:46;;;;;;;92.80;38.57;;;;;3.10;96473.00;;;;8405303;28;20741;-68
2023/03/04 17:44:52;;;;;;;373.00;157.97;;;;;3.00;96476.00;;;;8412398;28;20225;-68
2023/03/04 17:48:57;;;;;;;91.37;39.73;;;;;3.00;96472.00;;;;8416808;28;20203;-67
2023/03/04 17:53:02;;;;;;;139.93;49.50;;;;;3.00;96472.00;;;;8417400;28;20637;-68
2023/03/04 17:57:05;;;;;;;91.60;33.47;;;;;3.00;96471.00;;;;8410747;28;20194;-68
2023/03/04 18:01:16;;;;;;;92.73;31.23;;;;;3.00;96465.00;;;;8408690;28;20197;-67
2023/03/04 18:05:22;;;;;;;524.23;160.43;;;;;3.00;96461.00;;;;8417917;28;20825;-67
2023/03/04 18:09:35;;;;;;;385.47;95.37;;;;;3.00;96466.00;;;;8393105;28;20216;-68
2023/03/04 18:13:39;;;;;;;388.50;90.33;;;;;3.00;96454.00;;;;8407811;28;20715;-70
2023/03/04 18:17:44;;;;;;;416.70;93.33;;;;;3.00;96457.00;;;;8414514;28;20294;-68
2023/03/04 18:21:47;;;;;;;653.73;171.23;;;;;2.90;96456.00;;;;8412281;28;20345;-68
2023/03/04 18:25:52;;;;;;;499.60;127.10;;;;;2.90;96456.00;;;;8417026;28;20228;-69
2023/03/04 18:29:57;;;;;;;298.00;69.80;;;;;2.90;96456.00;;;;8408721;28;20202;-69
2023/03/04 18:34:01;;;;;;;918.27;330.63;;;;;2.90;96458.00;;;;8413203;28;20195;-68
2023/03/04 18:38:06;;;;;;;72.00;34.73;;;;;2.90;96459.00;;;;8407099;28;20259;-68
2023/03/04 18:42:13;;;;;;;82.90;42.93;;;;;2.90;96457.00;;;;8410636;28;20253;-68
2023/03/04 18:46:28;;;;;;;36.13;16.80;;;;;2.90;96450.00;;;;8408088;28;20269;-68
2023/03/04 18:50:31;;;;;;;36.80;15.97;;;;;2.90;96455.00;;;;8412437;28;20288;-70
2023/03/04 18:54:34;;;;;;;37.63;17.27;;;;;2.90;96447.00;;;;8416477;28;20236;-68
2023/03/04 18:58:47;;;;;;;29.47;12.47;;;;;2.90;96444.00;;;;8413030;28;20206;-69
2023/03/04 19:02:57;;;;;;;28.93;12.73;;;;;2.90;96447.00;;;;8386366;28;20230;-68
2023/03/04 19:07:01;;;;;;;31.40;15.33;;;;;2.90;96438.00;;;;8423607;28;20225;-68
2023/03/04 19:11:06;;;;;;;39.77;16.70;;;;;2.90;96450.00;;;;8412202;28;20205;-69
2023/03/04 19:15:12;;;;;;;30.87;14.13;;;;;2.90;96443.00;;;;8410153;28;20252;-69
2023/03/04 19:19:17;;;;;;;27.10;13.57;;;;;2.90;96449.00;;;;8412346;28;20201;-71
2023/03/04 19:23:21;;;;;;;36.27;14.23;;;;;2.90;96447.00;;;;8417286;28;20226;-68
2023/03/04 19:27:24;;;;;;;25.30;13.10;;;;;3.00;96449.00;;;;8421043;28;20223;-71
2023/03/04 19:31:35;;;;;;;31.47;12.23;;;;;3.00;96462.00;;;;8423398;28;20335;-69
2023/03/04 19:35:43;;;;;;;29.47;11.83;;;;;3.00;96456.00;;;;8425585;28;20565;-70
2023/03/04 19:39:47;;;;;;;33.70;12.00;;;;;3.00;96446.00;;;;8418545;28;20294;-69
2023/03/04 19:43:53;;;;;;;29.30;12.00;;;;;3.00;96449.00;;;;8417109;28;20205;-69
2023/03/04 19:48:01;;;;;;;26.87;11.40;;;;;3.00;96454.00;;;;8416442;28;20564;-69
2023/03/04 19:52:05;;;;;;;25.97;11.60;;;;;3.00;96447.00;;;;8416470;28;20799;-70
2023/03/04 19:56:21;;;;;;;23.60;11.43;;;;;3.00;96448.00;;;;8418728;28;20195;-68
2023/03/04 20:00:25;;;;;;;27.20;12.23;;;;;3.00;96444.00;;;;8412429;28;20524;-70
2023/03/04 20:04:30;;;;;;;27.03;11.00;;;;;3.00;96445.00;;;;8417724;28;20227;-70
2023/03/04 20:08:33;;;;;;;25.23;11.17;;;;;3.00;96455.00;;;;8416390;28;20206;-69
2023/03/04 20:12:40;;;;;;;26.13;12.20;;;;;3.00;96451.00;;;;8418784;28;20209;-69
2023/03/04 20:16:45;;;;;;;26.87;10.47;;;;;3.00;96450.00;;;;8418946;28;20550;-70
2023/03/04 20:20:51;;;;;;;31.87;11.17;;;;;3.00;96458.00;;;;8408761;28;20247;-70